Hovedside
METAR-TAF:

METAR-TAF

Lufthavner :

Sexton Summit, Oregon, USA

breddegrad: 42-36-01N, lengdegrad: 123-21-51W, høyde over havet: 0 m

Gjeldene værobservasjon

Denne rapporten ble laget for 1 time og 2 minutter siden, klokken 12:56 UTC
Vind 12 kt fra Sør med vindkast opp mot 19 kt
Temperatur 4°C
Luftfuktighet 100%
Trykk 1020 hPa
Sikt: 0.4 km
tåke

METAR: KSXT 231256Z AUTO 18012G19KT 1/4SM FG VV002 04/04 A3013 RMK AO2 SLP211 T00440039

Tid: 05:58 (13:58 UTC)


TAF: fraværende

Værobservasjoner og værvarsel for over 4000 flyplasser (METAR- og TAF-rapporter).

Tilgjengelige stasjoner er representert av de røde og gule prikkene på kartet.

Hold musepekeren over prikken for å se navnet på stasjonen.

Klikk så for å se værobservasjoner og -varsler.

For å forandre kartet kan du klikke på den grønne knappen med svart kryss for å zoome inn, på den grønne knappen med strek for å zoome ut, eller på de grønne pilene for å se tilstøtende kart.


METAR-TAF: